sensor_id;sensor_type;location;lat;lon;timestamp;pressure;altitude;pressure_sealevel;temperature;humidity
74045;BME280;62389;51.412;5.436;2023-04-02T00:07:49;100925.72;;;6.51;100.00
74045;BME280;62389;51.412;5.436;2023-04-02T00:15:27;100946.59;;;6.48;99.90
74045;BME280;62389;51.412;5.436;2023-04-02T00:17:52;100943.09;;;6.49;100.00
74045;BME280;62389;51.412;5.436;2023-04-02T00:20:18;100943.16;;;6.46;99.91
74045;BME280;62389;51.412;5.436;2023-04-02T00:22:44;100945.81;;;6.44;100.00
74045;BME280;62389;51.412;5.436;2023-04-02T00:25:12;100949.25;;;6.45;99.38
74045;BME280;62389;51.412;5.436;2023-04-02T00:27:38;100954.53;;;6.42;99.58
74045;BME280;62389;51.412;5.436;2023-04-02T00:30:06;100955.41;;;6.41;99.90
74045;BME280;62389;51.412;5.436;2023-04-02T00:32:32;100968.41;;;6.41;99.59
74045;BME280;62389;51.412;5.436;2023-04-02T00:34:59;100965.91;;;6.38;99.48
74045;BME280;62389;51.412;5.436;2023-04-02T00:37:28;100978.00;;;6.39;99.94
74045;BME280;62389;51.412;5.436;2023-04-02T00:40:27;100972.81;;;6.39;99.68
74045;BME280;62389;51.412;5.436;2023-04-02T00:42:55;100973.72;;;6.36;99.38
74045;BME280;62389;51.412;5.436;2023-04-02T00:45:26;100974.59;;;6.35;99.00
74045;BME280;62389;51.412;5.436;2023-04-02T00:47:54;100986.75;;;6.35;99.01
74045;BME280;62389;51.412;5.436;2023-04-02T00:50:33;100989.38;;;6.33;99.41
74045;BME280;62389;51.412;5.436;2023-04-02T00:53:03;100991.13;;;6.33;99.52
74045;BME280;62389;51.412;5.436;2023-04-02T00:55:38;100998.03;;;6.34;99.29
74045;BME280;62389;51.412;5.436;2023-04-02T00:58:16;100998.88;;;6.34;99.77
74045;BME280;62389;51.412;5.436;2023-04-02T01:00:48;101005.84;;;6.32;99.27
74045;BME280;62389;51.412;5.436;2023-04-02T01:05:59;101014.53;;;6.31;99.25
74045;BME280;62389;51.412;5.436;2023-04-02T01:08:49;101024.94;;;6.31;99.04
74045;BME280;62389;51.412;5.436;2023-04-02T01:25:44;101040.81;;;6.17;98.20
74045;BME280;62389;51.412;5.436;2023-04-02T01:28:27;101043.56;;;6.11;98.31
74045;BME280;62389;51.412;5.436;2023-04-02T01:30:57;101047.03;;;6.10;98.02
74045;BME280;62389;51.412;5.436;2023-04-02T01:33:32;101043.63;;;6.08;98.01
74045;BME280;62389;51.412;5.436;2023-04-02T01:36:18;101056.63;;;6.08;97.73
74045;BME280;62389;51.412;5.436;2023-04-02T01:41:47;101063.56;;;6.08;97.41
74045;BME280;62389;51.412;5.436;2023-04-02T01:44:25;101066.16;;;6.06;97.33
74045;BME280;62389;51.412;5.436;2023-04-02T01:46:52;101075.72;;;6.06;97.44
74045;BME280;62389;51.412;5.436;2023-04-02T01:49:20;101080.94;;;6.04;97.02
74045;BME280;62389;51.412;5.436;2023-04-02T01:51:52;101085.25;;;6.05;96.93
74045;BME280;62389;51.412;5.436;2023-04-02T01:54:21;101088.69;;;6.06;97.08
74045;BME280;62389;51.412;5.436;2023-04-02T01:56:47;101095.66;;;6.04;96.88
74045;BME280;62389;51.412;5.436;2023-04-02T01:59:16;101094.81;;;6.02;97.32
74045;BME280;62389;51.412;5.436;2023-04-02T02:01:45;101098.34;;;5.99;96.62
74045;BME280;62389;51.412;5.436;2023-04-02T02:04:14;101099.22;;;6.00;96.99
74045;BME280;62389;51.412;5.436;2023-04-02T02:06:41;101110.44;;;6.00;96.88
74045;BME280;62389;51.412;5.436;2023-04-02T02:09:13;101113.03;;;6.00;96.69
74045;BME280;62389;51.412;5.436;2023-04-02T02:11:40;101120.84;;;6.00;96.62
74045;BME280;62389;51.412;5.436;2023-04-02T02:14:14;101126.03;;;6.00;96.29
74045;BME280;62389;51.412;5.436;2023-04-02T02:16:41;101132.13;;;5.99;96.70
74045;BME280;62389;51.412;5.436;2023-04-02T02:19:22;101131.22;;;6.00;96.15
74045;BME280;62389;51.412;5.436;2023-04-02T02:21:51;101141.66;;;5.97;96.34
74045;BME280;62389;51.412;5.436;2023-04-02T02:24:22;101134.75;;;5.96;97.02
74045;BME280;62389;51.412;5.436;2023-04-02T02:26:54;101141.72;;;5.94;96.21
74045;BME280;62389;51.412;5.436;2023-04-02T02:29:21;101145.16;;;5.96;96.77
74045;BME280;62389;51.412;5.436;2023-04-02T02:31:51;101162.53;;;5.91;96.86
74045;BME280;62389;51.412;5.436;2023-04-02T02:34:21;101167.75;;;5.89;96.70
74045;BME280;62389;51.412;5.436;2023-04-02T02:36:52;101169.44;;;5.90;97.27
74045;BME280;62389;51.412;5.436;2023-04-02T02:39:43;101174.66;;;5.90;96.82
74045;BME280;62389;51.412;5.436;2023-04-02T02:42:14;101182.47;;;5.89;96.23
74045;BME280;62389;51.412;5.436;2023-04-02T02:44:46;101185.06;;;5.89;95.90
74045;BME280;62389;51.412;5.436;2023-04-02T02:47:16;101190.25;;;5.89;96.27
74045;BME280;62389;51.412;5.436;2023-04-02T02:49:49;101186.00;;;5.85;95.43
74045;BME280;62389;51.412;5.436;2023-04-02T02:52:18;101188.66;;;5.82;94.96
74045;BME280;62389;51.412;5.436;2023-04-02T02:54:50;101199.06;;;5.80;95.65
74045;BME280;62389;51.412;5.436;2023-04-02T02:57:26;101206.00;;;5.80;95.66
74045;BME280;62389;51.412;5.436;2023-04-02T02:59:54;101214.69;;;5.79;95.35
74045;BME280;62389;51.412;5.436;2023-04-02T03:02:22;101217.28;;;5.79;95.53
74045;BME280;62389;51.412;5.436;2023-04-02T03:04:49;101219.03;;;5.77;95.25
74045;BME280;62389;51.412;5.436;2023-04-02T03:07:18;101224.25;;;5.75;95.54
74045;BME280;62389;51.412;5.436;2023-04-02T03:10:19;101232.06;;;5.74;95.28
74045;BME280;62389;51.412;5.436;2023-04-02T03:16:45;101237.38;;;5.67;94.65
74045;BME280;62389;51.412;5.436;2023-04-02T03:18:57;101246.09;;;5.62;93.93
74045;BME280;62389;51.412;5.436;2023-04-02T03:21:36;101259.09;;;5.60;94.54
74045;BME280;62389;51.412;5.436;2023-04-02T03:24:16;101254.84;;;5.56;94.57
74045;BME280;62389;51.412;5.436;2023-04-02T03:29:18;101272.28;;;5.48;94.75
74045;BME280;62389;51.412;5.436;2023-04-02T03:34:41;101281.88;;;5.43;94.11
74045;BME280;62389;51.412;5.436;2023-04-02T03:37:18;101293.13;;;5.43;94.14
74045;BME280;62389;51.412;5.436;2023-04-02T03:40:03;101297.44;;;5.41;94.13
74045;BME280;62389;51.412;5.436;2023-04-02T03:42:48;101306.16;;;5.39;93.77
74045;BME280;62389;51.412;5.436;2023-04-02T03:45:18;101308.78;;;5.37;93.57
74045;BME280;62389;51.412;5.436;2023-04-02T03:47:56;101310.47;;;5.37;94.29
74045;BME280;62389;51.412;5.436;2023-04-02T03:50:43;101320.00;;;5.38;94.28
74045;BME280;62389;51.412;5.436;2023-04-02T03:53:11;101326.03;;;5.37;93.93
74045;BME280;62389;51.412;5.436;2023-04-02T03:55:39;101333.84;;;5.38;93.93
74045;BME280;62389;51.412;5.436;2023-04-02T03:58:26;101333.81;;;5.40;94.66
74045;BME280;62389;51.412;5.436;2023-04-02T04:06:24;101340.66;;;5.44;94.19
74045;BME280;62389;51.412;5.436;2023-04-02T04:09:04;101349.28;;;5.46;94.48
74045;BME280;62389;51.412;5.436;2023-04-02T04:11:38;101353.56;;;5.47;94.16
74045;BME280;62389;51.412;5.436;2023-04-02T04:14:18;101351.88;;;5.48;94.56
74045;BME280;62389;51.412;5.436;2023-04-02T04:16:50;101360.53;;;5.45;93.98
74045;BME280;62389;51.412;5.436;2023-04-02T04:19:40;101367.50;;;5.43;93.99
74045;BME280;62389;51.412;5.436;2023-04-02T04:22:22;101383.09;;;5.40;93.34
74045;BME280;62389;51.412;5.436;2023-04-02T04:25:02;101384.81;;;5.39;93.58
74045;BME280;62389;51.412;5.436;2023-04-02T04:27:42;101400.44;;;5.38;93.92
74045;BME280;62389;51.412;5.436;2023-04-02T04:30:20;101396.09;;;5.37;93.72
74045;BME280;62389;51.412;5.436;2023-04-02T04:33:00;101404.78;;;5.34;93.18
74045;BME280;62389;51.412;5.436;2023-04-02T04:35:36;101410.00;;;5.31;93.93
74045;BME280;62389;51.412;5.436;2023-04-02T04:38:10;101426.44;;;5.30;93.59
74045;BME280;62389;51.412;5.436;2023-04-02T04:40:44;101424.75;;;5.28;94.52
74045;BME280;62389;51.412;5.436;2023-04-02T04:43:20;101426.56;;;5.21;92.52
74045;BME280;62389;51.412;5.436;2023-04-02T04:45:55;101439.56;;;5.18;93.37
74045;BME280;62389;51.412;5.436;2023-04-02T04:48:31;101437.84;;;5.15;92.97
74045;BME280;62389;51.412;5.436;2023-04-02T04:51:04;101440.50;;;5.12;92.85
74045;BME280;62389;51.412;5.436;2023-04-02T04:53:32;101437.13;;;5.07;92.51
74045;BME280;62389;51.412;5.436;2023-04-02T04:56:03;101450.94;;;5.06;93.12
74045;BME280;62389;51.412;5.436;2023-04-02T04:58:38;101447.50;;;5.04;93.47
74045;BME280;62389;51.412;5.436;2023-04-02T05:01:26;101459.63;;;5.02;93.57
74045;BME280;62389;51.412;5.436;2023-04-02T05:06:24;101470.88;;;5.00;93.32
74045;BME280;62389;51.412;5.436;2023-04-02T05:08:53;101473.44;;;5.01;93.30
74045;BME280;62389;51.412;5.436;2023-04-02T05:11:27;101483.81;;;5.01;92.68
74045;BME280;62389;51.412;5.436;2023-04-02T05:14:04;101497.72;;;4.97;92.68
74045;BME280;62389;51.412;5.436;2023-04-02T05:17:13;101496.88;;;4.93;92.50
74045;BME280;62389;51.412;5.436;2023-04-02T05:19:42;101501.19;;;4.91;92.29
74045;BME280;62389;51.412;5.436;2023-04-02T05:22:20;101503.00;;;4.88;91.90
74045;BME280;62389;51.412;5.436;2023-04-02T05:25:16;101515.09;;;4.86;92.04
74045;BME280;62389;51.412;5.436;2023-04-02T05:33:05;101523.00;;;4.72;92.08
74045;BME280;62389;51.412;5.436;2023-04-02T05:35:42;101536.84;;;4.70;92.30
74045;BME280;62389;51.412;5.436;2023-04-02T05:38:18;101542.91;;;4.67;92.26
74045;BME280;62389;51.412;5.436;2023-04-02T05:40:47;101541.19;;;4.67;91.78
74045;BME280;62389;51.412;5.436;2023-04-02T05:43:17;101546.38;;;4.67;91.82
74045;BME280;62389;51.412;5.436;2023-04-02T05:45:51;101554.97;;;4.66;91.79
74045;BME280;62389;51.412;5.436;2023-04-02T05:48:26;101562.75;;;4.66;91.95
74045;BME280;62389;51.412;5.436;2023-04-02T05:50:55;101562.75;;;4.66;91.60
74045;BME280;62389;51.412;5.436;2023-04-02T05:53:25;101568.81;;;4.67;91.75
74045;BME280;62389;51.412;5.436;2023-04-02T05:55:53;101573.13;;;4.68;92.01
74045;BME280;62389;51.412;5.436;2023-04-02T06:01:03;101585.22;;;4.67;91.76
74045;BME280;62389;51.412;5.436;2023-04-02T06:06:28;101593.84;;;4.70;90.69
74045;BME280;62389;51.412;5.436;2023-04-02T06:09:49;101599.94;;;4.67;90.42
74045;BME280;62389;51.412;5.436;2023-04-02T06:12:00;101597.34;;;4.64;90.45
74045;BME280;62389;51.412;5.436;2023-04-02T06:14:28;101612.91;;;4.61;89.93
74045;BME280;62389;51.412;5.436;2023-04-02T06:16:54;101615.50;;;4.59;90.20
74045;BME280;62389;51.412;5.436;2023-04-02T06:19:27;101618.97;;;4.55;89.27
74045;BME280;62389;51.412;5.436;2023-04-02T06:22:06;101624.19;;;4.54;89.77
74045;BME280;62389;51.412;5.436;2023-04-02T06:24:33;101636.25;;;4.55;89.98
74045;BME280;62389;51.412;5.436;2023-04-02T06:27:03;101631.09;;;4.55;90.48
74045;BME280;62389;51.412;5.436;2023-04-02T06:29:33;101644.91;;;4.55;90.62
74045;BME280;62389;51.412;5.436;2023-04-02T06:32:08;101658.72;;;4.57;89.56
74045;BME280;62389;51.412;5.436;2023-04-02T06:34:37;101653.53;;;4.57;90.00
74045;BME280;62389;51.412;5.436;2023-04-02T06:37:20;101659.56;;;4.59;89.53
74045;BME280;62389;51.412;5.436;2023-04-02T06:39:46;101671.66;;;4.59;89.62
74045;BME280;62389;51.412;5.436;2023-04-02T06:42:16;101668.19;;;4.60;90.01
74045;BME280;62389;51.412;5.436;2023-04-02T06:44:43;101669.03;;;4.60;89.83
74045;BME280;62389;51.412;5.436;2023-04-02T06:47:15;101679.41;;;4.60;89.62
74045;BME280;62389;51.412;5.436;2023-04-02T06:50:02;101681.97;;;4.65;90.16
74045;BME280;62389;51.412;5.436;2023-04-02T06:52:53;101694.06;;;4.67;89.99
74045;BME280;62389;51.412;5.436;2023-04-02T06:58:04;101705.34;;;4.62;88.12
74045;BME280;62389;51.412;5.436;2023-04-02T07:00:39;101709.66;;;4.60;89.04
74045;BME280;62389;51.412;5.436;2023-04-02T07:03:08;101705.34;;;4.56;88.03
74045;BME280;62389;51.412;5.436;2023-04-02T07:05:38;101717.44;;;4.54;87.63
74045;BME280;62389;51.412;5.436;2023-04-02T07:08:03;101722.63;;;4.51;87.91
74045;BME280;62389;51.412;5.436;2023-04-02T07:10:29;101737.31;;;4.50;87.65
74045;BME280;62389;51.412;5.436;2023-04-02T07:12:54;101737.31;;;4.52;87.70
74045;BME280;62389;51.412;5.436;2023-04-02T07:15:19;101743.38;;;4.52;88.37
74045;BME280;62389;51.412;5.436;2023-04-02T07:17:47;101756.34;;;4.49;87.49
74045;BME280;62389;51.412;5.436;2023-04-02T07:20:24;101764.97;;;4.53;87.74
74045;BME280;62389;51.412;5.436;2023-04-02T07:22:50;101760.63;;;4.50;86.59
74045;BME280;62389;51.412;5.436;2023-04-02T07:25:16;101771.88;;;4.49;86.75
74045;BME280;62389;51.412;5.436;2023-04-02T07:27:41;101773.59;;;4.50;85.86
74045;BME280;62389;51.412;5.436;2023-04-02T07:30:07;101770.13;;;4.47;86.70
74045;BME280;62389;51.412;5.436;2023-04-02T07:32:32;101777.94;;;4.45;85.73
74045;BME280;62389;51.412;5.436;2023-04-02T07:34:57;101787.44;;;4.43;85.79
74045;BME280;62389;51.412;5.436;2023-04-02T07:37:23;101791.75;;;4.44;85.62
74045;BME280;62389;51.412;5.436;2023-04-02T07:39:48;101793.50;;;4.42;85.36
74045;BME280;62389;51.412;5.436;2023-04-02T07:42:13;101792.59;;;4.41;85.17
74045;BME280;62389;51.412;5.436;2023-04-02T07:44:39;101796.94;;;4.43;85.28
74045;BME280;62389;51.412;5.436;2023-04-02T07:47:04;101805.59;;;4.43;85.89
74045;BME280;62389;51.412;5.436;2023-04-02T07:49:30;101801.25;;;4.44;85.42
74045;BME280;62389;51.412;5.436;2023-04-02T07:51:55;101807.28;;;4.46;85.21
74045;BME280;62389;51.412;5.436;2023-04-02T07:54:21;101807.31;;;4.44;85.15
74045;BME280;62389;51.412;5.436;2023-04-02T07:56:46;101814.22;;;4.42;84.19
74045;BME280;62389;51.412;5.436;2023-04-02T07:59:11;101820.25;;;4.41;84.09
74045;BME280;62389;51.412;5.436;2023-04-02T08:01:37;101831.47;;;4.40;84.79
74045;BME280;62389;51.412;5.436;2023-04-02T08:04:03;101828.00;;;4.41;84.50
74045;BME280;62389;51.412;5.436;2023-04-02T08:06:29;101841.00;;;4.43;84.48
74045;BME280;62389;51.412;5.436;2023-04-02T08:08:56;101839.25;;;4.45;84.60
74045;BME280;62389;51.412;5.436;2023-04-02T08:11:22;101840.97;;;4.46;84.52
74045;BME280;62389;51.412;5.436;2023-04-02T08:13:47;101856.50;;;4.46;83.80
74045;BME280;62389;51.412;5.436;2023-04-02T08:16:12;101849.59;;;4.45;83.60
74045;BME280;62389;51.412;5.436;2023-04-02T08:18:38;101850.44;;;4.47;83.89
74045;BME280;62389;51.412;5.436;2023-04-02T08:21:08;101863.41;;;4.48;83.44
74045;BME280;62389;51.412;5.436;2023-04-02T08:23:34;101867.75;;;4.52;82.68
74045;BME280;62389;51.412;5.436;2023-04-02T08:26:00;101870.31;;;4.57;83.08
74045;BME280;62389;51.412;5.436;2023-04-02T08:28:25;101878.06;;;4.61;83.25
74045;BME280;62389;51.412;5.436;2023-04-02T08:30:51;101881.50;;;4.66;83.24
74045;BME280;62389;51.412;5.436;2023-04-02T08:33:17;101887.53;;;4.75;83.91
74045;BME280;62389;51.412;5.436;2023-04-02T08:35:44;101892.69;;;4.85;82.27
74045;BME280;62389;51.412;5.436;2023-04-02T08:38:13;101897.84;;;4.90;81.45
74045;BME280;62389;51.412;5.436;2023-04-02T08:40:44;101901.31;;;4.90;80.95
74045;BME280;62389;51.412;5.436;2023-04-02T08:48:24;101913.38;;;4.96;81.08
74045;BME280;62389;51.412;5.436;2023-04-02T08:50:50;101929.78;;;5.01;81.98
74045;BME280;62389;51.412;5.436;2023-04-02T08:53:24;101926.31;;;5.05;81.84
74045;BME280;62389;51.412;5.436;2023-04-02T08:55:57;101927.19;;;5.01;80.62
74045;BME280;62389;51.412;5.436;2023-04-02T08:58:40;101935.84;;;4.99;81.07
74045;BME280;62389;51.412;5.436;2023-04-02T09:01:14;101948.84;;;4.97;80.53
74045;BME280;62389;51.412;5.436;2023-04-02T09:03:47;101946.22;;;4.96;81.30
74045;BME280;62389;51.412;5.436;2023-04-02T09:06:17;101959.19;;;5.00;80.19
74045;BME280;62389;51.412;5.436;2023-04-02T09:08:46;101958.31;;;5.03;81.29
74045;BME280;62389;51.412;5.436;2023-04-02T09:11:35;101960.84;;;5.19;81.17
74045;BME280;62389;51.412;5.436;2023-04-02T09:14:23;101961.63;;;5.37;80.48
74045;BME280;62389;51.412;5.436;2023-04-02T09:16:54;101967.69;;;5.39;79.11
74045;BME280;62389;51.412;5.436;2023-04-02T09:19:28;101978.09;;;5.37;78.38
74045;BME280;62389;51.412;5.436;2023-04-02T09:24:53;101991.06;;;5.34;81.70
74045;BME280;62389;51.412;5.436;2023-04-02T09:27:25;102000.63;;;5.28;78.18
74045;BME280;62389;51.412;5.436;2023-04-02T09:29:56;101997.16;;;5.19;78.59
74045;BME280;62389;51.412;5.436;2023-04-02T09:32:58;102011.00;;;5.18;80.15
74045;BME280;62389;51.412;5.436;2023-04-02T09:35:23;102012.69;;;5.26;79.10
74045;BME280;62389;51.412;5.436;2023-04-02T09:38:09;102010.09;;;5.26;81.00
74045;BME280;62389;51.412;5.436;2023-04-02T09:40:48;102017.03;;;5.24;79.67
74045;BME280;62389;51.412;5.436;2023-04-02T09:48:44;102028.25;;;5.35;78.43
74045;BME280;62389;51.412;5.436;2023-04-02T09:51:16;102028.25;;;5.35;78.18
74045;BME280;62389;51.412;5.436;2023-04-02T09:53:47;102042.09;;;5.32;78.91
74045;BME280;62389;51.412;5.436;2023-04-02T09:56:21;102047.25;;;5.37;78.66
74045;BME280;62389;51.412;5.436;2023-04-02T09:59:05;102048.13;;;5.40;78.67
74045;BME280;62389;51.412;5.436;2023-04-02T10:01:33;102055.06;;;5.38;77.95
74045;BME280;62389;51.412;5.436;2023-04-02T10:04:01;102061.97;;;5.39;78.99
74045;BME280;62389;51.412;5.436;2023-04-02T10:06:28;102060.22;;;5.43;77.96
74045;BME280;62389;51.412;5.436;2023-04-02T10:08:55;102060.22;;;5.48;77.16
74045;BME280;62389;51.412;5.436;2023-04-02T10:11:26;102057.59;;;5.55;78.50
74045;BME280;62389;51.412;5.436;2023-04-02T10:16:22;102058.38;;;5.74;79.39
74045;BME280;62389;51.412;5.436;2023-04-02T10:18:56;102066.16;;;5.79;78.03
74045;BME280;62389;51.412;5.436;2023-04-02T10:21:35;102072.19;;;5.82;78.60
74045;BME280;62389;51.412;5.436;2023-04-02T10:24:02;102079.13;;;5.80;76.46
74045;BME280;62389;51.412;5.436;2023-04-02T10:29:28;102082.63;;;5.73;77.04
74045;BME280;62389;51.412;5.436;2023-04-02T10:32:16;102099.94;;;5.65;78.13
74045;BME280;62389;51.412;5.436;2023-04-02T10:34:57;102101.72;;;5.55;78.10
74045;BME280;62389;51.412;5.436;2023-04-02T10:40:30;102113.84;;;5.53;78.87
74045;BME280;62389;51.412;5.436;2023-04-02T10:54:23;102125.09;;;5.38;79.00
74045;BME280;62389;51.412;5.436;2023-04-02T10:57:01;102130.28;;;5.38;78.52
74045;BME280;62389;51.412;5.436;2023-04-02T10:59:31;102133.72;;;5.42;77.50
74045;BME280;62389;51.412;5.436;2023-04-02T11:02:01;102137.19;;;5.45;76.97
74045;BME280;62389;51.412;5.436;2023-04-02T11:04:50;102140.66;;;5.46;77.92
74045;BME280;62389;51.412;5.436;2023-04-02T11:07:20;102144.13;;;5.36;76.56
74045;BME280;62389;51.412;5.436;2023-04-02T11:09:49;102148.47;;;5.31;77.71
74045;BME280;62389;51.412;5.436;2023-04-02T11:12:23;102154.53;;;5.33;77.41
74045;BME280;62389;51.412;5.436;2023-04-02T11:14:51;102167.47;;;5.39;77.67
74045;BME280;62389;51.412;5.436;2023-04-02T11:17:18;102165.75;;;5.42;76.99
74045;BME280;62389;51.412;5.436;2023-04-02T11:19:44;102173.50;;;5.47;77.50
74045;BME280;62389;51.412;5.436;2023-04-02T11:24:44;102184.75;;;5.57;77.28
74045;BME280;62389;51.412;5.436;2023-04-02T11:29:42;102191.69;;;5.62;77.00
74045;BME280;62389;51.412;5.436;2023-04-02T11:37:37;102186.47;;;5.67;77.45
74045;BME280;62389;51.412;5.436;2023-04-02T11:42:54;102201.19;;;5.69;76.42
74045;BME280;62389;51.412;5.436;2023-04-02T11:50:32;102202.06;;;5.68;76.42
74045;BME280;62389;51.412;5.436;2023-04-02T11:53:24;102206.38;;;5.68;77.73
74045;BME280;62389;51.412;5.436;2023-04-02T12:06:21;102227.09;;;5.86;76.02
74045;BME280;62389;51.412;5.436;2023-04-02T12:09:19;102228.84;;;5.89;76.25
74045;BME280;62389;51.412;5.436;2023-04-02T12:11:47;102238.38;;;5.84;75.42
74045;BME280;62389;51.412;5.436;2023-04-02T12:14:40;102236.66;;;5.83;76.53
74045;BME280;62389;51.412;5.436;2023-04-02T12:22:28;102248.75;;;5.84;75.69
74045;BME280;62389;51.412;5.436;2023-04-02T12:25:02;102254.81;;;5.89;76.19
74045;BME280;62389;51.412;5.436;2023-04-02T12:27:28;102250.47;;;5.91;75.32
74045;BME280;62389;51.412;5.436;2023-04-02T12:32:55;102262.59;;;5.96;75.31
74045;BME280;62389;51.412;5.436;2023-04-02T12:35:33;102257.44;;;5.98;75.50
74045;BME280;62389;51.412;5.436;2023-04-02T12:37:59;102263.47;;;5.95;74.69
74045;BME280;62389;51.412;5.436;2023-04-02T12:40:26;102272.13;;;5.90;75.07
74045;BME280;62389;51.412;5.436;2023-04-02T12:42:52;102266.06;;;5.88;74.59
74045;BME280;62389;51.412;5.436;2023-04-02T12:45:24;102275.59;;;5.89;75.43
74045;BME280;62389;51.412;5.436;2023-04-02T12:47:50;102282.53;;;5.93;74.14
74045;BME280;62389;51.412;5.436;2023-04-02T12:50:18;102280.78;;;5.96;73.98
74045;BME280;62389;51.412;5.436;2023-04-02T12:52:46;102280.78;;;6.01;73.99
74045;BME280;62389;51.412;5.436;2023-04-02T12:55:16;102282.50;;;6.02;74.49
74045;BME280;62389;51.412;5.436;2023-04-02T12:57:43;102283.34;;;6.07;73.62
74045;BME280;62389;51.412;5.436;2023-04-02T13:02:48;102290.31;;;6.01;73.63
74045;BME280;62389;51.412;5.436;2023-04-02T13:05:40;102292.91;;;5.99;74.69
74045;BME280;62389;51.412;5.436;2023-04-02T13:08:17;102297.22;;;5.97;74.45
74045;BME280;62389;51.412;5.436;2023-04-02T13:10:43;102296.38;;;5.96;73.52
74045;BME280;62389;51.412;5.436;2023-04-02T13:13:14;102314.56;;;6.00;73.55
74045;BME280;62389;51.412;5.436;2023-04-02T13:15:40;102309.34;;;6.06;74.31
74045;BME280;62389;51.412;5.436;2023-04-02T13:20:54;102317.13;;;6.13;75.00
74045;BME280;62389;51.412;5.436;2023-04-02T13:25:56;102313.63;;;6.17;74.59
74045;BME280;62389;51.412;5.436;2023-04-02T13:28:22;102319.72;;;6.24;73.44
74045;BME280;62389;51.412;5.436;2023-04-02T13:30:48;102314.47;;;6.32;72.95
74045;BME280;62389;51.412;5.436;2023-04-02T13:33:13;102310.16;;;6.34;73.51
74045;BME280;62389;51.412;5.436;2023-04-02T13:35:40;102310.13;;;6.41;73.01
74045;BME280;62389;51.412;5.436;2023-04-02T13:38:05;102308.34;;;6.63;73.49
74045;BME280;62389;51.412;5.436;2023-04-02T13:40:32;102315.16;;;6.89;72.38
74045;BME280;62389;51.412;5.436;2023-04-02T13:42:58;102316.81;;;7.08;71.29
74045;BME280;62389;51.412;5.436;2023-04-02T13:45:36;102308.84;;;7.26;70.79
74045;BME280;62389;51.412;5.436;2023-04-02T13:48:03;102314.00;;;7.39;69.97
74045;BME280;62389;51.412;5.436;2023-04-02T13:50:31;102318.22;;;7.55;69.55
74045;BME280;62389;51.412;5.436;2023-04-02T13:52:59;102321.59;;;7.69;70.57
74045;BME280;62389;51.412;5.436;2023-04-02T13:55:29;102322.31;;;7.82;68.67
74045;BME280;62389;51.412;5.436;2023-04-02T13:57:56;102327.47;;;7.91;68.19
74045;BME280;62389;51.412;5.436;2023-04-02T14:00:22;102323.97;;;7.94;66.96
74045;BME280;62389;51.412;5.436;2023-04-02T14:03:15;102328.50;;;7.73;66.55
74045;BME280;62389;51.412;5.436;2023-04-02T14:11:35;102332.69;;;7.90;67.23
74045;BME280;62389;51.412;5.436;2023-04-02T14:19:53;102320.41;;;8.04;67.28
74045;BME280;62389;51.412;5.436;2023-04-02T14:22:40;102333.41;;;8.07;67.52
74045;BME280;62389;51.412;5.436;2023-04-02T14:25:47;102332.38;;;8.22;68.64
74045;BME280;62389;51.412;5.436;2023-04-02T14:31:58;102339.16;;;8.43;66.24
74045;BME280;62389;51.412;5.436;2023-04-02T14:34:16;102342.63;;;8.43;64.87
74045;BME280;62389;51.412;5.436;2023-04-02T14:44:29;102355.72;;;8.36;64.99
74045;BME280;62389;51.412;5.436;2023-04-02T14:47:07;102352.19;;;8.43;64.48
74045;BME280;62389;51.412;5.436;2023-04-02T14:49:39;102350.38;;;8.51;63.58
74045;BME280;62389;51.412;5.436;2023-04-02T14:52:13;102353.81;;;8.53;64.04
74045;BME280;62389;51.412;5.436;2023-04-02T14:55:01;102349.47;;;8.52;65.26
74045;BME280;62389;51.412;5.436;2023-04-02T15:00:05;102359.03;;;8.53;63.21
74045;BME280;62389;51.412;5.436;2023-04-02T15:05:49;102369.47;;;8.53;65.32
74045;BME280;62389;51.412;5.436;2023-04-02T15:08:29;102372.09;;;8.51;65.46
74045;BME280;62389;51.412;5.436;2023-04-02T15:11:03;102371.31;;;8.42;62.46
74045;BME280;62389;51.412;5.436;2023-04-02T15:13:45;102367.94;;;8.27;63.65
74045;BME280;62389;51.412;5.436;2023-04-02T15:16:17;102375.88;;;8.18;64.18
74045;BME280;62389;51.412;5.436;2023-04-02T15:18:51;102361.94;;;8.21;63.76
74045;BME280;62389;51.412;5.436;2023-04-02T15:26:35;102366.28;;;8.22;62.54
74045;BME280;62389;51.412;5.436;2023-04-02T15:43:22;102370.78;;;8.04;63.68
74045;BME280;62389;51.412;5.436;2023-04-02T16:01:22;102384.78;;;7.91;66.61
74045;BME280;62389;51.412;5.436;2023-04-02T16:09:25;102401.41;;;7.72;64.00
74045;BME280;62389;51.412;5.436;2023-04-02T16:12:07;102403.16;;;7.71;63.54
74045;BME280;62389;51.412;5.436;2023-04-02T16:14:36;102407.53;;;7.69;62.95
74045;BME280;62389;51.412;5.436;2023-04-02T16:17:04;102409.28;;;7.69;66.05
74045;BME280;62389;51.412;5.436;2023-04-02T16:19:34;102408.41;;;7.68;63.09
74045;BME280;62389;51.412;5.436;2023-04-02T16:25:20;102409.28;;;7.69;63.67
74045;BME280;62389;51.412;5.436;2023-04-02T16:38:52;102431.81;;;7.70;62.09
74045;BME280;62389;51.412;5.436;2023-04-02T16:46:38;102439.66;;;7.65;63.12
74045;BME280;62389;51.412;5.436;2023-04-02T17:03:04;102454.50;;;7.48;63.40
74045;BME280;62389;51.412;5.436;2023-04-02T17:09:34;102467.56;;;7.42;62.70
74045;BME280;62389;51.412;5.436;2023-04-02T17:14:09;102481.44;;;7.41;62.72
74045;BME280;62389;51.412;5.436;2023-04-02T17:16:43;102484.06;;;7.38;63.14
74045;BME280;62389;51.412;5.436;2023-04-02T17:19:11;102482.34;;;7.35;62.79
74045;BME280;62389;51.412;5.436;2023-04-02T17:21:39;102485.81;;;7.33;61.82
74045;BME280;62389;51.412;5.436;2023-04-02T17:26:39;102497.13;;;7.27;62.87
74045;BME280;62389;51.412;5.436;2023-04-02T17:29:15;102500.59;;;7.24;63.48
74045;BME280;62389;51.412;5.436;2023-04-02T17:31:44;102505.81;;;7.20;63.57
74045;BME280;62389;51.412;5.436;2023-04-02T17:34:15;102510.19;;;7.18;64.18
74045;BME280;62389;51.412;5.436;2023-04-02T17:37:01;102508.44;;;7.14;65.57
74045;BME280;62389;51.412;5.436;2023-04-02T17:39:40;102511.06;;;7.09;65.11